sensor_id;sensor_type;location;lat;lon;timestamp;temperature;humidity
28244;DHT22;15510;52.512;13.300;2023-06-22T00:01:03;21.50;99.90
28244;DHT22;15510;52.512;13.300;2023-06-22T00:03:57;21.50;99.90
28244;DHT22;15510;52.512;13.300;2023-06-22T00:06:23;21.50;99.90
28244;DHT22;15510;52.512;13.300;2023-06-22T00:08:58;21.40;99.90
28244;DHT22;15510;52.512;13.300;2023-06-22T00:11:38;21.40;99.90
28244;DHT22;15510;52.512;13.300;2023-06-22T00:14:19;21.40;99.90
28244;DHT22;15510;52.512;13.300;2023-06-22T00:16:54;21.40;99.90
28244;DHT22;15510;52.512;13.300;2023-06-22T00:19:35;21.30;99.90
28244;DHT22;15510;52.512;13.300;2023-06-22T00:22:01;21.30;99.90
28244;DHT22;15510;52.512;13.300;2023-06-22T00:24:31;21.30;99.90
28244;DHT22;15510;52.512;13.300;2023-06-22T00:27:00;21.30;99.90
28244;DHT22;15510;52.512;13.300;2023-06-22T00:29:26;21.30;99.90
28244;DHT22;15510;52.512;13.300;2023-06-22T00:32:01;21.30;99.90
28244;DHT22;15510;52.512;13.300;2023-06-22T00:34:27;21.20;99.90
28244;DHT22;15510;52.512;13.300;2023-06-22T00:37:01;21.20;99.90
28244;DHT22;15510;52.512;13.300;2023-06-22T00:39:28;21.20;99.90
28244;DHT22;15510;52.512;13.300;2023-06-22T00:41:56;21.20;99.90
28244;DHT22;15510;52.512;13.300;2023-06-22T00:44:22;21.20;99.90
28244;DHT22;15510;52.512;13.300;2023-06-22T00:46:50;21.20;99.90
28244;DHT22;15510;52.512;13.300;2023-06-22T00:49:19;21.20;99.90
28244;DHT22;15510;52.512;13.300;2023-06-22T00:51:45;21.20;99.90
28244;DHT22;15510;52.512;13.300;2023-06-22T00:54:13;21.20;99.90
28244;DHT22;15510;52.512;13.300;2023-06-22T00:56:40;21.20;99.90
28244;DHT22;15510;52.512;13.300;2023-06-22T00:59:06;21.20;99.90
28244;DHT22;15510;52.512;13.300;2023-06-22T01:01:41;21.10;99.90
28244;DHT22;15510;52.512;13.300;2023-06-22T01:04:07;21.20;99.90
28244;DHT22;15510;52.512;13.300;2023-06-22T01:06:40;21.20;99.90
28244;DHT22;15510;52.512;13.300;2023-06-22T01:09:28;21.10;99.90
28244;DHT22;15510;52.512;13.300;2023-06-22T01:11:58;21.10;99.90
28244;DHT22;15510;52.512;13.300;2023-06-22T01:14:52;21.10;99.90
28244;DHT22;15510;52.512;13.300;2023-06-22T01:17:31;21.10;99.90
28244;DHT22;15510;52.512;13.300;2023-06-22T01:20:02;21.10;99.90
28244;DHT22;15510;52.512;13.300;2023-06-22T01:23:24;21.00;99.90
28244;DHT22;15510;52.512;13.300;2023-06-22T01:26:28;21.10;99.90
28244;DHT22;15510;52.512;13.300;2023-06-22T01:28:58;21.00;99.90
28244;DHT22;15510;52.512;13.300;2023-06-22T01:31:28;21.00;99.90
28244;DHT22;15510;52.512;13.300;2023-06-22T01:34:03;20.90;99.90
28244;DHT22;15510;52.512;13.300;2023-06-22T01:36:31;20.90;99.90
28244;DHT22;15510;52.512;13.300;2023-06-22T01:39:03;20.90;99.90
28244;DHT22;15510;52.512;13.300;2023-06-22T01:41:36;20.80;99.90
28244;DHT22;15510;52.512;13.300;2023-06-22T01:44:05;20.80;99.90
28244;DHT22;15510;52.512;13.300;2023-06-22T01:46:37;20.80;99.90
28244;DHT22;15510;52.512;13.300;2023-06-22T01:49:16;20.70;99.90
28244;DHT22;15510;52.512;13.300;2023-06-22T01:51:53;20.70;99.90
28244;DHT22;15510;52.512;13.300;2023-06-22T01:54:25;20.70;99.90
28244;DHT22;15510;52.512;13.300;2023-06-22T01:56:54;20.60;99.90
28244;DHT22;15510;52.512;13.300;2023-06-22T01:59:49;20.60;99.90
28244;DHT22;15510;52.512;13.300;2023-06-22T02:02:31;20.70;99.90
28244;DHT22;15510;52.512;13.300;2023-06-22T02:05:06;20.60;99.90
28244;DHT22;15510;52.512;13.300;2023-06-22T02:07:44;20.60;99.90
28244;DHT22;15510;52.512;13.300;2023-06-22T02:10:18;20.60;99.90
28244;DHT22;15510;52.512;13.300;2023-06-22T02:12:49;20.60;99.90
28244;DHT22;15510;52.512;13.300;2023-06-22T02:15:16;20.70;99.90
28244;DHT22;15510;52.512;13.300;2023-06-22T02:17:52;20.70;99.90
28244;DHT22;15510;52.512;13.300;2023-06-22T02:20:18;20.70;99.90
28244;DHT22;15510;52.512;13.300;2023-06-22T02:22:47;20.70;99.90
28244;DHT22;15510;52.512;13.300;2023-06-22T02:25:15;20.80;99.90
28244;DHT22;15510;52.512;13.300;2023-06-22T02:27:44;20.80;99.90
28244;DHT22;15510;52.512;13.300;2023-06-22T02:30:12;20.80;99.90
28244;DHT22;15510;52.512;13.300;2023-06-22T02:32:42;20.80;99.90
28244;DHT22;15510;52.512;13.300;2023-06-22T02:35:09;20.80;99.90
28244;DHT22;15510;52.512;13.300;2023-06-22T02:37:38;20.80;99.90
28244;DHT22;15510;52.512;13.300;2023-06-22T02:40:10;20.90;99.90
28244;DHT22;15510;52.512;13.300;2023-06-22T02:42:37;21.00;99.90
28244;DHT22;15510;52.512;13.300;2023-06-22T02:45:06;21.00;99.90
28244;DHT22;15510;52.512;13.300;2023-06-22T02:47:44;21.10;99.90
28244;DHT22;15510;52.512;13.300;2023-06-22T02:50:10;21.10;99.90
28244;DHT22;15510;52.512;13.300;2023-06-22T02:52:35;21.20;99.90
28244;DHT22;15510;52.512;13.300;2023-06-22T02:55:05;21.20;99.90
28244;DHT22;15510;52.512;13.300;2023-06-22T02:57:35;21.20;99.90
28244;DHT22;15510;52.512;13.300;2023-06-22T03:00:03;21.20;99.90
28244;DHT22;15510;52.512;13.300;2023-06-22T03:02:46;21.20;99.90
28244;DHT22;15510;52.512;13.300;2023-06-22T03:05:17;21.20;99.90
28244;DHT22;15510;52.512;13.300;2023-06-22T03:07:44;21.20;99.90
28244;DHT22;15510;52.512;13.300;2023-06-22T03:10:12;21.20;99.90
28244;DHT22;15510;52.512;13.300;2023-06-22T03:12:38;21.30;99.90
28244;DHT22;15510;52.512;13.300;2023-06-22T03:15:08;21.30;99.90
28244;DHT22;15510;52.512;13.300;2023-06-22T03:17:37;21.30;99.90
28244;DHT22;15510;52.512;13.300;2023-06-22T03:20:05;21.20;99.90
28244;DHT22;15510;52.512;13.300;2023-06-22T03:22:36;21.20;99.90
28244;DHT22;15510;52.512;13.300;2023-06-22T03:25:15;21.20;99.90
28244;DHT22;15510;52.512;13.300;2023-06-22T03:27:44;21.10;99.90
28244;DHT22;15510;52.512;13.300;2023-06-22T03:30:13;21.20;99.90
28244;DHT22;15510;52.512;13.300;2023-06-22T03:32:41;21.20;99.90
28244;DHT22;15510;52.512;13.300;2023-06-22T03:35:09;21.10;99.90
28244;DHT22;15510;52.512;13.300;2023-06-22T03:37:42;21.20;99.90
28244;DHT22;15510;52.512;13.300;2023-06-22T03:40:09;21.10;99.90
28244;DHT22;15510;52.512;13.300;2023-06-22T03:42:45;21.10;99.90
28244;DHT22;15510;52.512;13.300;2023-06-22T03:45:13;21.10;99.90
28244;DHT22;15510;52.512;13.300;2023-06-22T03:47:40;21.20;99.90
28244;DHT22;15510;52.512;13.300;2023-06-22T03:50:07;21.10;99.90
28244;DHT22;15510;52.512;13.300;2023-06-22T03:52:32;21.20;99.90
28244;DHT22;15510;52.512;13.300;2023-06-22T03:55:08;21.20;99.90
28244;DHT22;15510;52.512;13.300;2023-06-22T03:57:34;21.20;99.90
28244;DHT22;15510;52.512;13.300;2023-06-22T04:00:02;21.20;99.90
28244;DHT22;15510;52.512;13.300;2023-06-22T04:02:40;21.20;99.90
28244;DHT22;15510;52.512;13.300;2023-06-22T04:05:06;21.20;99.90
28244;DHT22;15510;52.512;13.300;2023-06-22T04:07:31;21.30;99.90
28244;DHT22;15510;52.512;13.300;2023-06-22T04:09:57;21.30;99.90
28244;DHT22;15510;52.512;13.300;2023-06-22T04:12:25;21.20;99.90
28244;DHT22;15510;52.512;13.300;2023-06-22T04:14:51;21.20;99.90
28244;DHT22;15510;52.512;13.300;2023-06-22T04:17:17;21.20;99.90
28244;DHT22;15510;52.512;13.300;2023-06-22T04:19:47;21.20;99.90
28244;DHT22;15510;52.512;13.300;2023-06-22T04:22:16;21.30;99.90
28244;DHT22;15510;52.512;13.300;2023-06-22T04:24:42;21.30;99.90
28244;DHT22;15510;52.512;13.300;2023-06-22T04:27:08;21.30;99.90
28244;DHT22;15510;52.512;13.300;2023-06-22T04:29:37;21.30;99.90
28244;DHT22;15510;52.512;13.300;2023-06-22T04:32:03;21.40;99.90
28244;DHT22;15510;52.512;13.300;2023-06-22T04:34:31;21.40;99.90
28244;DHT22;15510;52.512;13.300;2023-06-22T04:36:57;21.50;99.90
28244;DHT22;15510;52.512;13.300;2023-06-22T04:39:26;21.50;99.90
28244;DHT22;15510;52.512;13.300;2023-06-22T04:41:52;21.60;99.90
28244;DHT22;15510;52.512;13.300;2023-06-22T04:44:21;21.60;99.90
28244;DHT22;15510;52.512;13.300;2023-06-22T04:47:02;21.70;99.90
28244;DHT22;15510;52.512;13.300;2023-06-22T04:49:35;21.70;99.90
28244;DHT22;15510;52.512;13.300;2023-06-22T04:52:13;21.80;99.90
28244;DHT22;15510;52.512;13.300;2023-06-22T04:54:40;22.00;99.90
28244;DHT22;15510;52.512;13.300;2023-06-22T04:57:14;22.00;99.90
28244;DHT22;15510;52.512;13.300;2023-06-22T04:59:41;22.20;99.90
28244;DHT22;15510;52.512;13.300;2023-06-22T05:02:07;22.50;99.90
28244;DHT22;15510;52.512;13.300;2023-06-22T05:04:34;22.60;99.90
28244;DHT22;15510;52.512;13.300;2023-06-22T05:07:06;22.70;99.90
28244;DHT22;15510;52.512;13.300;2023-06-22T05:10:05;22.70;99.90
28244;DHT22;15510;52.512;13.300;2023-06-22T05:12:42;22.90;99.90
28244;DHT22;15510;52.512;13.300;2023-06-22T05:15:10;23.00;99.90
28244;DHT22;15510;52.512;13.300;2023-06-22T05:17:37;23.10;99.90
28244;DHT22;15510;52.512;13.300;2023-06-22T05:20:17;23.10;99.90
28244;DHT22;15510;52.512;13.300;2023-06-22T05:22:57;23.10;99.90
28244;DHT22;15510;52.512;13.300;2023-06-22T05:25:23;23.10;99.90
28244;DHT22;15510;52.512;13.300;2023-06-22T05:27:56;23.20;99.90
28244;DHT22;15510;52.512;13.300;2023-06-22T05:30:30;23.20;99.90
28244;DHT22;15510;52.512;13.300;2023-06-22T05:32:56;23.20;99.90
28244;DHT22;15510;52.512;13.300;2023-06-22T05:35:22;23.20;99.90
28244;DHT22;15510;52.512;13.300;2023-06-22T05:37:50;23.20;99.90
28244;DHT22;15510;52.512;13.300;2023-06-22T05:40:16;23.30;99.90
28244;DHT22;15510;52.512;13.300;2023-06-22T05:42:45;23.30;99.90
28244;DHT22;15510;52.512;13.300;2023-06-22T05:45:13;23.40;99.90
28244;DHT22;15510;52.512;13.300;2023-06-22T05:47:42;23.40;99.90
28244;DHT22;15510;52.512;13.300;2023-06-22T05:50:13;23.50;99.90
28244;DHT22;15510;52.512;13.300;2023-06-22T05:52:39;23.50;99.90
28244;DHT22;15510;52.512;13.300;2023-06-22T05:55:05;23.50;99.90
28244;DHT22;15510;52.512;13.300;2023-06-22T05:57:36;23.50;99.90
28244;DHT22;15510;52.512;13.300;2023-06-22T06:00:05;23.50;99.90
28244;DHT22;15510;52.512;13.300;2023-06-22T06:02:41;23.50;99.90
28244;DHT22;15510;52.512;13.300;2023-06-22T06:05:21;23.50;99.90
28244;DHT22;15510;52.512;13.300;2023-06-22T06:08:05;23.50;99.90
28244;DHT22;15510;52.512;13.300;2023-06-22T06:10:35;23.50;99.90
28244;DHT22;15510;52.512;13.300;2023-06-22T06:13:15;23.60;99.90
28244;DHT22;15510;52.512;13.300;2023-06-22T06:15:47;23.60;99.90
28244;DHT22;15510;52.512;13.300;2023-06-22T06:18:13;23.50;99.90
28244;DHT22;15510;52.512;13.300;2023-06-22T06:20:42;23.30;99.90
28244;DHT22;15510;52.512;13.300;2023-06-22T06:23:16;23.20;99.90
28244;DHT22;15510;52.512;13.300;2023-06-22T06:25:45;23.10;99.90
28244;DHT22;15510;52.512;13.300;2023-06-22T06:28:10;23.20;99.90
28244;DHT22;15510;52.512;13.300;2023-06-22T06:30:36;23.30;99.90
28244;DHT22;15510;52.512;13.300;2023-06-22T06:33:10;23.40;99.90
28244;DHT22;15510;52.512;13.300;2023-06-22T06:35:39;23.60;99.90
28244;DHT22;15510;52.512;13.300;2023-06-22T06:38:04;23.70;99.90
28244;DHT22;15510;52.512;13.300;2023-06-22T06:40:33;23.80;99.90
28244;DHT22;15510;52.512;13.300;2023-06-22T06:43:04;23.90;99.90
28244;DHT22;15510;52.512;13.300;2023-06-22T06:45:30;24.00;99.90
28244;DHT22;15510;52.512;13.300;2023-06-22T06:48:03;24.10;99.90
28244;DHT22;15510;52.512;13.300;2023-06-22T06:50:28;24.10;99.90
28244;DHT22;15510;52.512;13.300;2023-06-22T06:53:11;24.20;99.90
28244;DHT22;15510;52.512;13.300;2023-06-22T06:55:56;24.30;99.90
28244;DHT22;15510;52.512;13.300;2023-06-22T06:58:28;24.30;99.90
28244;DHT22;15510;52.512;13.300;2023-06-22T07:00:59;24.30;99.90
28244;DHT22;15510;52.512;13.300;2023-06-22T07:03:25;24.40;99.90
28244;DHT22;15510;52.512;13.300;2023-06-22T07:06:01;24.30;99.90
28244;DHT22;15510;52.512;13.300;2023-06-22T07:08:34;24.40;99.90
28244;DHT22;15510;52.512;13.300;2023-06-22T07:11:08;24.50;99.90
28244;DHT22;15510;52.512;13.300;2023-06-22T07:13:37;24.70;99.90
28244;DHT22;15510;52.512;13.300;2023-06-22T07:16:04;24.90;99.90
28244;DHT22;15510;52.512;13.300;2023-06-22T07:18:30;25.30;99.90
28244;DHT22;15510;52.512;13.300;2023-06-22T07:20:56;25.50;99.90
28244;DHT22;15510;52.512;13.300;2023-06-22T07:23:21;25.60;99.90
28244;DHT22;15510;52.512;13.300;2023-06-22T07:25:53;25.70;99.90
28244;DHT22;15510;52.512;13.300;2023-06-22T07:28:38;25.80;99.90
28244;DHT22;15510;52.512;13.300;2023-06-22T07:31:12;26.00;99.90
28244;DHT22;15510;52.512;13.300;2023-06-22T07:33:41;26.20;99.90
28244;DHT22;15510;52.512;13.300;2023-06-22T07:36:08;26.20;99.90
28244;DHT22;15510;52.512;13.300;2023-06-22T07:38:34;26.40;99.90
28244;DHT22;15510;52.512;13.300;2023-06-22T07:41:09;26.50;99.90
28244;DHT22;15510;52.512;13.300;2023-06-22T07:43:37;26.70;99.90
28244;DHT22;15510;52.512;13.300;2023-06-22T07:46:04;26.90;99.90
28244;DHT22;15510;52.512;13.300;2023-06-22T07:48:58;27.00;99.90
28244;DHT22;15510;52.512;13.300;2023-06-22T07:51:39;26.80;99.90
28244;DHT22;15510;52.512;13.300;2023-06-22T07:54:23;26.90;99.90
28244;DHT22;15510;52.512;13.300;2023-06-22T07:59:34;26.80;99.90
28244;DHT22;15510;52.512;13.300;2023-06-22T08:02:23;27.00;99.90
28244;DHT22;15510;52.512;13.300;2023-06-22T08:05:19;26.80;99.90
28244;DHT22;15510;52.512;13.300;2023-06-22T08:08:00;26.90;99.90
28244;DHT22;15510;52.512;13.300;2023-06-22T08:10:40;26.90;99.30
28244;DHT22;15510;52.512;13.300;2023-06-22T08:13:10;26.90;99.90
28244;DHT22;15510;52.512;13.300;2023-06-22T08:15:38;26.80;97.40
28244;DHT22;15510;52.512;13.300;2023-06-22T08:18:12;26.80;97.00
28244;DHT22;15510;52.512;13.300;2023-06-22T08:20:43;26.90;97.50
28244;DHT22;15510;52.512;13.300;2023-06-22T08:23:09;27.10;97.40
28244;DHT22;15510;52.512;13.300;2023-06-22T08:25:45;27.20;96.70
28244;DHT22;15510;52.512;13.300;2023-06-22T08:28:18;27.20;96.70
28244;DHT22;15510;52.512;13.300;2023-06-22T08:30:47;27.30;97.30
28244;DHT22;15510;52.512;13.300;2023-06-22T08:33:18;27.30;97.40
28244;DHT22;15510;52.512;13.300;2023-06-22T08:35:44;27.40;97.30
28244;DHT22;15510;52.512;13.300;2023-06-22T08:38:13;27.60;96.40
28244;DHT22;15510;52.512;13.300;2023-06-22T08:40:43;27.60;95.90
28244;DHT22;15510;52.512;13.300;2023-06-22T08:43:14;27.60;95.90
28244;DHT22;15510;52.512;13.300;2023-06-22T08:45:43;27.50;93.40
28244;DHT22;15510;52.512;13.300;2023-06-22T08:48:22;27.40;94.10
28244;DHT22;15510;52.512;13.300;2023-06-22T08:50:48;27.40;94.80
28244;DHT22;15510;52.512;13.300;2023-06-22T08:53:17;27.50;94.70
28244;DHT22;15510;52.512;13.300;2023-06-22T08:55:43;27.30;94.70
28244;DHT22;15510;52.512;13.300;2023-06-22T08:58:18;27.30;95.80
28244;DHT22;15510;52.512;13.300;2023-06-22T09:00:54;27.40;95.30
28244;DHT22;15510;52.512;13.300;2023-06-22T09:03:29;27.70;94.70
28244;DHT22;15510;52.512;13.300;2023-06-22T09:06:11;27.70;95.10
28244;DHT22;15510;52.512;13.300;2023-06-22T09:09:03;28.20;95.10
28244;DHT22;15510;52.512;13.300;2023-06-22T09:11:35;28.60;94.50
28244;DHT22;15510;52.512;13.300;2023-06-22T09:14:04;28.60;93.40
28244;DHT22;15510;52.512;13.300;2023-06-22T09:16:30;28.20;93.00
28244;DHT22;15510;52.512;13.300;2023-06-22T09:19:02;28.10;94.10
28244;DHT22;15510;52.512;13.300;2023-06-22T09:21:34;28.20;95.00
28244;DHT22;15510;52.512;13.300;2023-06-22T09:24:00;28.20;95.30
28244;DHT22;15510;52.512;13.300;2023-06-22T09:26:26;27.90;95.40
28244;DHT22;15510;52.512;13.300;2023-06-22T09:28:52;27.90;96.40
28244;DHT22;15510;52.512;13.300;2023-06-22T09:31:21;27.90;96.00
28244;DHT22;15510;52.512;13.300;2023-06-22T09:33:53;27.90;95.40
28244;DHT22;15510;52.512;13.300;2023-06-22T09:36:28;27.80;96.30
28244;DHT22;15510;52.512;13.300;2023-06-22T09:38:56;27.90;96.00
28244;DHT22;15510;52.512;13.300;2023-06-22T09:41:24;28.00;95.30
28244;DHT22;15510;52.512;13.300;2023-06-22T09:43:50;28.00;95.10
28244;DHT22;15510;52.512;13.300;2023-06-22T09:46:17;28.00;94.70
28244;DHT22;15510;52.512;13.300;2023-06-22T09:48:43;28.00;91.70
28244;DHT22;15510;52.512;13.300;2023-06-22T09:51:09;27.90;91.80
28244;DHT22;15510;52.512;13.300;2023-06-22T09:53:35;28.20;91.90
28244;DHT22;15510;52.512;13.300;2023-06-22T09:56:01;28.20;91.90
28244;DHT22;15510;52.512;13.300;2023-06-22T09:58:27;28.10;92.60
28244;DHT22;15510;52.512;13.300;2023-06-22T10:01:17;28.40;93.10
28244;DHT22;15510;52.512;13.300;2023-06-22T10:03:55;28.60;91.60
28244;DHT22;15510;52.512;13.300;2023-06-22T10:06:31;28.30;92.20
28244;DHT22;15510;52.512;13.300;2023-06-22T10:12:11;28.70;91.90
28244;DHT22;15510;52.512;13.300;2023-06-22T10:14:37;28.40;92.80
28244;DHT22;15510;52.512;13.300;2023-06-22T10:17:03;28.40;92.70
28244;DHT22;15510;52.512;13.300;2023-06-22T10:19:37;28.40;93.00
28244;DHT22;15510;52.512;13.300;2023-06-22T10:22:15;28.60;92.50
28244;DHT22;15510;52.512;13.300;2023-06-22T10:24:48;28.70;92.70
28244;DHT22;15510;52.512;13.300;2023-06-22T10:27:17;28.40;91.90
28244;DHT22;15510;52.512;13.300;2023-06-22T10:29:54;28.30;93.50
28244;DHT22;15510;52.512;13.300;2023-06-22T10:32:26;28.60;94.00
28244;DHT22;15510;52.512;13.300;2023-06-22T10:35:01;29.00;92.30
28244;DHT22;15510;52.512;13.300;2023-06-22T10:37:33;29.10;92.40
28244;DHT22;15510;52.512;13.300;2023-06-22T10:40:06;29.30;92.70
28244;DHT22;15510;52.512;13.300;2023-06-22T10:42:36;29.50;91.80
28244;DHT22;15510;52.512;13.300;2023-06-22T10:45:10;29.80;91.10
28244;DHT22;15510;52.512;13.300;2023-06-22T10:48:23;29.80;91.30
28244;DHT22;15510;52.512;13.300;2023-06-22T10:51:32;29.60;91.30
28244;DHT22;15510;52.512;13.300;2023-06-22T10:54:20;29.40;91.20
28244;DHT22;15510;52.512;13.300;2023-06-22T10:56:46;29.30;91.80
28244;DHT22;15510;52.512;13.300;2023-06-22T10:59:12;29.20;92.50
28244;DHT22;15510;52.512;13.300;2023-06-22T11:01:44;29.20;92.50
28244;DHT22;15510;52.512;13.300;2023-06-22T11:04:23;29.40;92.40
28244;DHT22;15510;52.512;13.300;2023-06-22T11:07:16;29.40;92.40
28244;DHT22;15510;52.512;13.300;2023-06-22T11:09:45;29.60;91.70
28244;DHT22;15510;52.512;13.300;2023-06-22T11:12:13;29.70;90.30
28244;DHT22;15510;52.512;13.300;2023-06-22T11:14:49;29.90;90.00
28244;DHT22;15510;52.512;13.300;2023-06-22T11:19:56;30.00;91.50
28244;DHT22;15510;52.512;13.300;2023-06-22T11:22:29;30.50;87.60
28244;DHT22;15510;52.512;13.300;2023-06-22T11:24:59;30.80;84.40
28244;DHT22;15510;52.512;13.300;2023-06-22T11:27:24;31.10;85.10
28244;DHT22;15510;52.512;13.300;2023-06-22T11:29:53;31.30;81.90
28244;DHT22;15510;52.512;13.300;2023-06-22T11:32:30;31.60;80.50
28244;DHT22;15510;52.512;13.300;2023-06-22T11:34:58;31.40;76.90
28244;DHT22;15510;52.512;13.300;2023-06-22T11:37:24;31.80;80.60
28244;DHT22;15510;52.512;13.300;2023-06-22T11:39:53;33.10;73.30
28244;DHT22;15510;52.512;13.300;2023-06-22T11:42:33;34.00;71.10
28244;DHT22;15510;52.512;13.300;2023-06-22T11:44:59;34.20;66.90
28244;DHT22;15510;52.512;13.300;2023-06-22T11:47:29;34.60;65.80
28244;DHT22;15510;52.512;13.300;2023-06-22T11:49:55;34.20;64.00
28244;DHT22;15510;52.512;13.300;2023-06-22T11:52:21;33.10;65.70
28244;DHT22;15510;52.512;13.300;2023-06-22T11:54:46;32.40;68.00
28244;DHT22;15510;52.512;13.300;2023-06-22T11:57:12;32.00;71.00
28244;DHT22;15510;52.512;13.300;2023-06-22T11:59:38;31.70;70.80
28244;DHT22;15510;52.512;13.300;2023-06-22T12:02:04;31.10;71.70
28244;DHT22;15510;52.512;13.300;2023-06-22T12:04:31;31.30;73.20
28244;DHT22;15510;52.512;13.300;2023-06-22T12:06:56;31.30;72.60
28244;DHT22;15510;52.512;13.300;2023-06-22T12:09:23;31.70;73.50
28244;DHT22;15510;52.512;13.300;2023-06-22T12:11:49;32.50;71.70
28244;DHT22;15510;52.512;13.300;2023-06-22T12:14:15;33.60;68.00
28244;DHT22;15510;52.512;13.300;2023-06-22T12:16:41;34.50;64.70
28244;DHT22;15510;52.512;13.300;2023-06-22T12:19:06;35.60;61.30
28244;DHT22;15510;52.512;13.300;2023-06-22T12:21:32;35.50;58.50
28244;DHT22;15510;52.512;13.300;2023-06-22T12:23:57;35.50;57.80
28244;DHT22;15510;52.512;13.300;2023-06-22T12:26:23;35.20;57.40
28244;DHT22;15510;52.512;13.300;2023-06-22T12:28:49;35.30;57.50
28244;DHT22;15510;52.512;13.300;2023-06-22T12:31:15;36.10;56.20
28244;DHT22;15510;52.512;13.300;2023-06-22T12:33:40;37.00;54.30
28244;DHT22;15510;52.512;13.300;2023-06-22T12:36:07;36.90;53.40
28244;DHT22;15510;52.512;13.300;2023-06-22T12:38:33;36.90;53.90
28244;DHT22;15510;52.512;13.300;2023-06-22T12:40:59;37.40;51.60
28244;DHT22;15510;52.512;13.300;2023-06-22T12:43:24;36.40;51.50
28244;DHT22;15510;52.512;13.300;2023-06-22T12:45:50;37.00;52.20
28244;DHT22;15510;52.512;13.300;2023-06-22T12:48:16;36.10;52.20
28244;DHT22;15510;52.512;13.300;2023-06-22T12:50:42;35.70;52.40
28244;DHT22;15510;52.512;13.300;2023-06-22T12:53:08;35.70;53.10
28244;DHT22;15510;52.512;13.300;2023-06-22T12:55:33;36.20;53.10
28244;DHT22;15510;52.512;13.300;2023-06-22T12:57:59;36.20;51.60
28244;DHT22;15510;52.512;13.300;2023-06-22T13:00:25;35.00;52.60
28244;DHT22;15510;52.512;13.300;2023-06-22T13:02:51;35.00;53.50
28244;DHT22;15510;52.512;13.300;2023-06-22T13:05:16;35.10;53.50
28244;DHT22;15510;52.512;13.300;2023-06-22T13:07:42;35.90;53.60
28244;DHT22;15510;52.512;13.300;2023-06-22T13:10:08;36.40;52.40
28244;DHT22;15510;52.512;13.300;2023-06-22T13:12:34;37.80;51.00
28244;DHT22;15510;52.512;13.300;2023-06-22T13:15:00;38.60;48.80
28244;DHT22;15510;52.512;13.300;2023-06-22T13:17:25;38.80;47.90
28244;DHT22;15510;52.512;13.300;2023-06-22T13:19:51;38.10;47.90
28244;DHT22;15510;52.512;13.300;2023-06-22T13:24:52;38.30;48.70
28244;DHT22;15510;52.512;13.300;2023-06-22T13:27:18;38.20;47.80
28244;DHT22;15510;52.512;13.300;2023-06-22T13:29:43;39.40;46.70
28244;DHT22;15510;52.512;13.300;2023-06-22T13:32:09;40.40;44.80
28244;DHT22;15510;52.512;13.300;2023-06-22T13:34:34;41.10;43.60
28244;DHT22;15510;52.512;13.300;2023-06-22T13:37:00;41.50;42.50
28244;DHT22;15510;52.512;13.300;2023-06-22T13:39:26;42.00;42.60
28244;DHT22;15510;52.512;13.300;2023-06-22T13:41:52;41.30;41.90
28244;DHT22;15510;52.512;13.300;2023-06-22T13:44:17;41.70;41.60
28244;DHT22;15510;52.512;13.300;2023-06-22T13:46:43;42.40;40.10
28244;DHT22;15510;52.512;13.300;2023-06-22T13:49:09;42.70;40.10
28244;DHT22;15510;52.512;13.300;2023-06-22T13:51:36;42.00;39.80
28244;DHT22;15510;52.512;13.300;2023-06-22T13:54:02;42.10;39.60
28244;DHT22;15510;52.512;13.300;2023-06-22T13:56:27;42.10;40.00
28244;DHT22;15510;52.512;13.300;2023-06-22T13:58:53;42.20;39.80
28244;DHT22;15510;52.512;13.300;2023-06-22T14:01:19;41.70;39.50
28244;DHT22;15510;52.512;13.300;2023-06-22T14:03:44;41.30;40.50
28244;DHT22;15510;52.512;13.300;2023-06-22T14:06:12;41.10;40.60
28244;DHT22;15510;52.512;13.300;2023-06-22T14:08:39;42.00;40.00
28244;DHT22;15510;52.512;13.300;2023-06-22T14:11:05;41.40;39.40
28244;DHT22;15510;52.512;13.300;2023-06-22T14:13:30;41.80;39.70
28244;DHT22;15510;52.512;13.300;2023-06-22T14:15:56;42.90;38.80
28244;DHT22;15510;52.512;13.300;2023-06-22T14:18:22;43.10;37.70
28244;DHT22;15510;52.512;13.300;2023-06-22T14:20:48;43.40;37.20
28244;DHT22;15510;52.512;13.300;2023-06-22T14:23:14;43.90;36.60
28244;DHT22;15510;52.512;13.300;2023-06-22T14:25:40;44.30;36.40
28244;DHT22;15510;52.512;13.300;2023-06-22T14:28:06;44.40;35.90
28244;DHT22;15510;52.512;13.300;2023-06-22T14:30:32;44.70;35.50
28244;DHT22;15510;52.512;13.300;2023-06-22T14:32:57;44.90;35.40
28244;DHT22;15510;52.512;13.300;2023-06-22T14:35:23;44.40;35.00
28244;DHT22;15510;52.512;13.300;2023-06-22T14:37:50;43.80;35.60
28244;DHT22;15510;52.512;13.300;2023-06-22T14:40:16;43.90;36.10
28244;DHT22;15510;52.512;13.300;2023-06-22T14:42:41;44.60;35.30
28244;DHT22;15510;52.512;13.300;2023-06-22T14:45:07;45.00;34.80
28244;DHT22;15510;52.512;13.300;2023-06-22T14:47:33;44.90;34.80
28244;DHT22;15510;52.512;13.300;2023-06-22T14:49:59;44.90;34.30
28244;DHT22;15510;52.512;13.300;2023-06-22T14:52:26;45.00;34.00
28244;DHT22;15510;52.512;13.300;2023-06-22T14:54:52;44.70;34.20
28244;DHT22;15510;52.512;13.300;2023-06-22T14:57:18;43.30;35.00
28244;DHT22;15510;52.512;13.300;2023-06-22T14:59:46;41.30;36.50
28244;DHT22;15510;52.512;13.300;2023-06-22T15:02:12;38.90;38.50
28244;DHT22;15510;52.512;13.300;2023-06-22T15:04:38;36.40;41.50
28244;DHT22;15510;52.512;13.300;2023-06-22T15:07:04;35.50;43.30
28244;DHT22;15510;52.512;13.300;2023-06-22T15:09:30;34.90;44.70
28244;DHT22;15510;52.512;13.300;2023-06-22T15:11:56;34.60;44.90
28244;DHT22;15510;52.512;13.300;2023-06-22T15:14:23;34.00;46.00
28244;DHT22;15510;52.512;13.300;2023-06-22T15:16:50;33.40;46.70
28244;DHT22;15510;52.512;13.300;2023-06-22T15:19:15;33.20;47.50
28244;DHT22;15510;52.512;13.300;2023-06-22T15:21:42;33.00;48.70
28244;DHT22;15510;52.512;13.300;2023-06-22T15:24:08;32.90;48.40
28244;DHT22;15510;52.512;13.300;2023-06-22T15:26:34;32.80;49.40
28244;DHT22;15510;52.512;13.300;2023-06-22T15:28:59;32.60;48.90
28244;DHT22;15510;52.512;13.300;2023-06-22T15:31:26;32.30;49.80
28244;DHT22;15510;52.512;13.300;2023-06-22T15:33:52;32.10;50.10
28244;DHT22;15510;52.512;13.300;2023-06-22T15:36:18;32.00;50.50
28244;DHT22;15510;52.512;13.300;2023-06-22T15:38:44;31.80;51.50
28244;DHT22;15510;52.512;13.300;2023-06-22T15:41:10;31.30;52.40
28244;DHT22;15510;52.512;13.300;2023-06-22T15:43:35;31.10;52.90
28244;DHT22;15510;52.512;13.300;2023-06-22T15:46:01;30.80;53.80